Time;durP1;ratioP1;P1;durP2;ratioP2;P2;SDS_P1;SDS_P2;PMS_P1;PMS_P2;Temp;Humidity;BMP_temperature;BMP_pressure;BME280_temperature;BME280_humidity;BME280_pressure;Samples;Min_cycle;Max_cycle;Signal;HPM_P1;HPM_P2
2022/07/15 00:56:42;;;;;;;8.85;3.10;;;;;;;21.77;40.21;99734.01;1619044;116;25663;-95
2022/07/15 01:08:23;;;;;;;4.60;1.82;;;;;;;21.57;41.00;99733.78;1706144;110;27156;-96
2022/07/15 01:23:19;;;;;;;;;;;;;;;;;;;;;
2022/07/15 01:27:44;;;;;;;5.53;2.12;;;;;;;21.30;41.70;99719.58;1702546;114;26645;-94
2022/07/15 01:31:22;;;;;;;4.87;2.12;;;;;;;21.30;41.71;99724.41;1755741;107;25958;-95
2022/07/15 01:35:27;;;;;;;;;;;;;;;;;;;;;
2022/07/15 01:39:07;;;;;;;5.75;1.10;;;;;;;21.23;42.02;99721.55;1748672;109;25960;-96
2022/07/15 01:42:38;;;;;;;2.47;1.00;;;;;;;21.14;42.20;99717.84;1783554;106;25889;-94
2022/07/15 01:46:50;;;;;;;;;;;;;;;;;;;;;
2022/07/15 02:14:15;;;;;;;5.45;0.93;;;;;;;20.56;43.60;99727.02;1870206;103;25573;-91
2022/07/15 02:18:41;;;;;;;;;;;;;;;;;;;;;
2022/07/15 03:15:53;;;;;;;;;;;;;;;;;;;;;
2022/07/15 03:23:27;;;;;;;2.05;0.78;;;;;;;18.93;47.55;99768.31;2106157;92;25761;-83
2022/07/15 03:27:33;;;;;;;4.55;1.10;;;;;;;18.85;47.57;99767.16;2025966;96;25859;-87
2022/07/15 03:31:40;;;;;;;;;;;;;;;;;;;;;
2022/07/15 03:35:19;;;;;;;2.30;1.02;;;;;;;18.86;47.83;99783.88;1965108;98;25986;-84
2022/07/15 03:39:18;;;;;;;1.70;0.80;;;;;;;18.85;47.92;99778.19;1978375;98;25729;-85
2022/07/15 03:43:23;;;;;;;2.85;0.70;;;;;;;18.84;47.96;99785.23;1939307;99;25696;-85
2022/07/15 03:46:45;;;;;;;;;;;;;;;18.83;47.86;99782.61;1936350;99;26286;-84
2022/07/15 03:50:50;;;;;;;1.80;0.80;;;;;;;18.85;47.98;99782.14;1946282;98;26004;-87
2022/07/15 03:58:46;;;;;;;;;;;;;;;;;;;;;
2022/07/15 04:02:41;;;;;;;;;;;;;;;;;;;;;
2022/07/15 04:06:17;;;;;;;2.12;0.80;;;;;;;18.96;48.08;99782.78;1920972;100;25802;-87
2022/07/15 04:10:16;;;;;;;3.12;0.82;;;;;;;18.97;48.04;99780.59;1904619;102;25790;-87
2022/07/15 04:14:22;;;;;;;1.35;0.75;;;;;;;18.97;47.98;99781.05;1927112;100;26065;-86
2022/07/15 04:18:09;;;;;;;5.55;0.70;;;;;;;18.99;47.85;99785.83;1835045;105;25840;-92
2022/07/15 04:26:19;;;;;;;1.47;0.75;;;;;;;19.03;47.89;99790.14;1776296;109;26158;-90
2022/07/15 04:30:08;;;;;;;0.90;0.50;;;;;;;19.05;47.63;99794.50;1789213;107;25887;-91
2022/07/15 04:33:59;;;;;;;6.62;0.90;;;;;;;19.05;47.51;99790.53;1783974;109;25963;-83
2022/07/15 04:37:53;;;;;;;1.45;0.57;;;;;;;19.11;47.33;99786.91;1757797;111;25917;-89
2022/07/15 04:46:14;;;;;;;1.98;0.75;;;;;;;19.26;47.05;99798.45;1710149;114;26307;-89
2022/07/15 04:53:57;;;;;;;;;;;;;;;19.48;46.54;99792.73;1692578;114;25815;-87
2022/07/15 04:57:31;;;;;;;;;;;;;;;;;;;;;
2022/07/15 05:01:37;;;;;;;;;;;;;;;;;;;;;
2022/07/15 05:09:25;;;;;;;4.50;1.17;;;;;;;19.99;45.52;99820.23;1775554;110;25845;-86
2022/07/15 05:12:50;;;;;;;5.85;1.10;;;;;;;20.13;45.09;99824.73;1763169;110;25857;-87
2022/07/15 05:16:38;;;;;;;2.02;0.98;;;;;;;20.19;44.81;99836.48;1744628;110;25429;-85
2022/07/15 05:20:26;;;;;;;;;;;;;;;;;;;;;
2022/07/15 05:25:12;;;;;;;;;;;;;;;;;;;;;
2022/07/15 05:32:18;;;;;;;6.25;0.72;;;;;;;20.98;43.86;99845.94;1922071;99;25875;-86
2022/07/15 05:36:04;;;;;;;7.35;1.00;;;;;;;21.19;43.39;99849.34;1961072;99;26252;-87
2022/07/15 05:44:23;;;;;;;2.17;0.75;;;;;;;21.49;42.93;99866.61;1953514;99;25908;-87
2022/07/15 05:56:30;;;;;;;;;;;;;;;;;;;;;
2022/07/15 06:00:08;;;;;;;3.83;0.60;;;;;;;22.71;41.36;99883.10;1890662;103;25974;-92
2022/07/15 06:07:58;;;;;;;1.80;0.50;;;;;;;23.06;40.11;99895.68;1758020;109;26036;-88
2022/07/15 06:15:08;;;;;;;2.80;0.55;;;;;;;23.38;39.38;99910.45;1705185;113;25913;-88
2022/07/15 06:20:00;;;;;;;;;;;;;;;;;;;;;
2022/07/15 06:29:36;;;;;;;5.20;0.82;;;;;;;23.97;38.86;99918.03;1734706;109;25493;-88
2022/07/15 06:33:25;;;;;;;5.97;0.70;;;;;;;24.08;39.01;99928.72;1729558;112;26041;-86
2022/07/15 06:37:11;;;;;;;3.90;0.50;;;;;;;24.16;38.88;99922.61;1753034;107;25994;-86
2022/07/15 06:41:05;;;;;;;1.98;0.55;;;;;;;24.11;38.85;99935.27;1780495;108;25905;-86
2022/07/15 06:45:23;;;;;;;2.27;0.50;;;;;;;24.29;38.71;99925.20;1757929;107;25976;-87
2022/07/15 06:48:34;;;;;;;9.27;4.97;;;;;;;24.44;38.59;99927.28;1830200;105;25859;-88
2022/07/15 06:52:28;;;;;;;6.62;0.90;;;;;;;24.45;38.27;99929.48;1869443;104;25875;-87
2022/07/15 07:00:35;;;;;;;1.52;0.65;;;;;;;24.68;38.16;99936.53;1833175;106;25826;-86
2022/07/15 07:04:52;;;;;;;3.22;0.68;;;;;;;25.05;37.88;99941.17;1829120;104;25994;-86
2022/07/15 07:08:43;;;;;;;2.60;1.87;;;;;;;25.38;37.35;99948.64;1818765;105;26049;-85
2022/07/15 07:16:17;;;;;;;3.58;0.78;;;;;;;26.06;36.15;99946.48;1773530;110;25872;-86
2022/07/15 07:23:58;;;;;;;;;;;;;;;;;;;;;
2022/07/15 07:27:19;;;;;;;;;;;;;;;;;;;;;
2022/07/15 07:42:09;;;;;;;;;;;;;;;;;;;;;
2022/07/15 07:52:52;;;;;;;;;;;;;;;;;;;;;
2022/07/15 08:26:10;;;;;;;0.70;0.50;;;;;;;29.55;31.20;99996.44;1647023;116;25870;-89
2022/07/15 08:29:38;;;;;;;1.20;0.50;;;;;;;29.49;30.84;99999.50;1634274;118;25929;-86
2022/07/15 08:33:47;;;;;;;1.82;0.60;;;;;;;29.32;30.50;100004.55;1627790;118;26011;-85
2022/07/15 08:47:47;;;;;;;1.07;0.40;;;;;;;30.13;28.86;100009.81;1579767;118;26734;-84
2022/07/15 08:51:14;;;;;;;1.17;0.42;;;;;;;30.15;28.29;100015.59;1592500;121;26085;-83
2022/07/15 08:54:44;;;;;;;0.65;0.55;;;;;;;29.79;28.57;100018.27;1636068;116;26275;-83
2022/07/15 08:58:11;;;;;;;3.75;0.50;;;;;;;29.56;28.50;100021.84;1697268;112;25905;-83
2022/07/15 09:01:35;;;;;;;1.98;0.60;;;;;;;29.78;28.19;100013.87;1662552;114;26339;-83
2022/07/15 09:09:44;;;;;;;1.85;0.60;;;;;;;30.41;27.44;100006.75;1684891;114;25872;-84
2022/07/15 09:13:16;;;;;;;2.58;0.60;;;;;;;30.30;26.98;100016.83;1672430;114;25581;-83
2022/07/15 09:16:48;;;;;;;2.10;0.50;;;;;;;30.21;26.67;100018.79;1680909;115;25420;-85
2022/07/15 09:24:19;;;;;;;;;;;;;;;;;;;;;
2022/07/15 09:40:34;;;;;;;2.60;0.60;;;;;;;28.83;27.46;100015.48;1677117;114;26338;-83
2022/07/15 09:44:40;;;;;;;3.90;0.53;;;;;;;28.45;27.75;100025.21;1670872;114;26378;-82
2022/07/15 09:48:35;;;;;;;2.33;0.70;;;;;;;28.28;28.11;100035.50;1659421;115;26555;-81
2022/07/15 09:52:16;;;;;;;5.75;1.25;;;;;;;28.48;28.11;100035.77;1665411;116;25940;-82
2022/07/15 10:00:01;;;;;;;2.60;0.70;;;;;;;28.22;27.92;100026.00;1635109;118;26313;-81
2022/07/15 10:03:23;;;;;;;5.83;1.02;;;;;;;28.49;27.98;100028.14;1605317;118;26402;-81
2022/07/15 10:07:15;;;;;;;1.32;0.60;;;;;;;28.39;28.30;100021.56;1596787;117;26739;-82
2022/07/15 10:11:04;;;;;;;3.35;0.62;;;;;;;28.64;28.13;100032.62;1629608;119;27126;-81
2022/07/15 10:15:55;;;;;;;;;;;;;;;;;;;;;
2022/07/15 10:20:07;;;;;;;1.40;0.68;;;;;;;28.77;26.71;100022.05;1697951;114;25972;-84
2022/07/15 10:24:26;;;;;;;2.02;0.60;;;;;;;28.54;26.72;100029.20;1708997;113;26129;-82
2022/07/15 10:32:30;;;;;;;4.12;0.60;;;;;;;28.81;26.65;100029.45;1642461;118;27016;-83
2022/07/15 10:36:23;;;;;;;9.63;0.82;;;;;;;29.00;26.85;100025.27;1670688;116;25427;-83
2022/07/15 10:40:15;;;;;;;3.45;0.50;;;;;;;28.94;26.07;100037.18;1688617;113;25877;-82
2022/07/15 10:53:18;;;;;;;3.12;0.60;;;;;;;28.44;26.92;100056.53;1657809;116;26171;-83
2022/07/15 10:56:55;;;;;;;6.60;0.70;;;;;;;28.85;27.13;100040.38;1659561;116;26393;-82
2022/07/15 11:04:45;;;;;;;4.05;0.40;;;;;;;28.71;25.87;100043.38;1665576;116;26576;-84
2022/07/15 11:08:55;;;;;;;3.90;0.75;;;;;;;28.35;26.63;100048.09;1684656;115;26162;-82
2022/07/15 11:12:53;;;;;;;4.45;0.60;;;;;;;28.57;26.67;100045.13;1725957;113;25891;-83
2022/07/15 11:16:33;;;;;;;4.60;0.65;;;;;;;28.33;26.33;100060.73;1677101;115;26125;-82
2022/07/15 11:20:52;;;;;;;6.10;0.60;;;;;;;28.38;26.55;100064.02;1675231;115;26635;-82
2022/07/15 11:24:18;;;;;;;10.25;0.82;;;;;;;28.65;26.52;100065.22;1720176;112;26019;-84
2022/07/15 11:28:19;;;;;;;7.12;0.80;;;;;;;28.93;26.64;100061.81;1721258;109;25646;-80
2022/07/15 11:31:55;;;;;;;4.90;0.85;;;;;;;29.06;26.22;100066.03;1815545;107;25963;-81
2022/07/15 11:36:22;;;;;;;6.90;0.72;;;;;;;28.93;25.79;100055.10;1749057;111;25951;-81
2022/07/15 11:44:39;;;;;;;5.37;0.70;;;;;;;28.82;26.02;100079.02;1746275;111;26477;-81
2022/07/15 11:48:10;;;;;;;2.08;0.78;;;;;;;29.11;25.98;100059.91;1787039;108;26149;-84
2022/07/15 11:51:44;;;;;;;1.82;0.90;;;;;;;29.23;25.19;100063.70;1788586;108;25871;-83
2022/07/15 11:55:26;;;;;;;4.22;0.50;;;;;;;29.36;25.14;100064.71;1753966;108;25932;-81
2022/07/15 11:59:23;;;;;;;3.00;0.72;;;;;;;29.14;24.92;100054.84;1748559;111;26051;-86
2022/07/15 12:07:07;;;;;;;8.80;0.68;;;;;;;29.41;24.55;100076.02;1704886;113;25888;-82
2022/07/15 12:10:41;;;;;;;4.08;0.78;;;;;;;29.57;24.30;100077.33;1720398;113;26173;-81
2022/07/15 12:14:01;;;;;;;2.65;0.80;;;;;;;29.30;24.45;100085.20;1723154;112;25732;-82
2022/07/15 12:17:34;;;;;;;3.33;0.80;;;;;;;29.12;24.10;100099.20;1761742;110;25919;-83
2022/07/15 12:21:08;;;;;;;0.80;0.33;;;;;;;29.01;23.83;100100.31;1729687;111;27141;-84
2022/07/15 12:25:13;;;;;;;7.05;0.57;;;;;;;29.34;23.72;100081.37;1745885;110;25831;-86
2022/07/15 12:29:09;;;;;;;3.02;0.50;;;;;;;29.63;23.69;100083.71;1756491;110;26049;-86
2022/07/15 12:32:48;;;;;;;2.58;0.60;;;;;;;29.76;23.36;100101.75;1741687;111;26072;-86
2022/07/15 12:36:53;;;;;;;7.20;0.93;;;;;;;29.74;23.16;100095.63;1739244;110;25930;-87
2022/07/15 12:40:20;;;;;;;1.92;0.50;;;;;;;29.46;23.30;100086.97;1746844;110;26457;-88
2022/07/15 12:43:57;;;;;;;2.30;0.40;;;;;;;29.74;23.45;100099.66;1752021;109;26602;-89
2022/07/15 12:47:57;;;;;;;6.58;0.45;;;;;;;29.94;22.90;100092.59;1775026;109;25775;-88
2022/07/15 12:51:53;;;;;;;3.35;0.60;;;;;;;30.08;22.60;100098.45;1766378;109;25903;-90
2022/07/15 12:55:41;;;;;;;3.12;0.68;;;;;;;30.11;22.91;100096.44;1756227;110;25807;-92
2022/07/15 12:59:41;;;;;;;8.45;1.00;;;;;;;30.46;23.10;100094.72;1740954;107;25904;-90
2022/07/15 13:07:20;;;;;;;3.15;0.50;;;;;;;30.57;22.75;100112.38;1779474;109;25858;-83
